sensor_id;sensor_type;location;lat;lon;timestamp;P1;durP1;ratioP1;P2;durP2;ratioP2
33826;SDS011;20128;45.582;5.298;2022-09-27T00:01:58;8.15;;;1.63;;
33826;SDS011;20128;45.582;5.298;2022-09-27T00:04:25;3.70;;;1.60;;
33826;SDS011;20128;45.582;5.298;2022-09-27T00:06:51;2.53;;;1.38;;
33826;SDS011;20128;45.582;5.298;2022-09-27T00:09:17;7.97;;;1.63;;
33826;SDS011;20128;45.582;5.298;2022-09-27T00:11:43;1.95;;;1.10;;
33826;SDS011;20128;45.582;5.298;2022-09-27T00:14:10;7.70;;;1.17;;
33826;SDS011;20128;45.582;5.298;2022-09-27T00:16:37;4.00;;;1.30;;
33826;SDS011;20128;45.582;5.298;2022-09-27T00:19:11;6.05;;;1.40;;
33826;SDS011;20128;45.582;5.298;2022-09-27T00:21:40;3.15;;;1.42;;
33826;SDS011;20128;45.582;5.298;2022-09-27T00:24:06;2.60;;;1.10;;
33826;SDS011;20128;45.582;5.298;2022-09-27T00:26:35;4.72;;;1.27;;
33826;SDS011;20128;45.582;5.298;2022-09-27T00:29:01;3.35;;;1.25;;
33826;SDS011;20128;45.582;5.298;2022-09-27T00:31:27;4.40;;;1.40;;
33826;SDS011;20128;45.582;5.298;2022-09-27T00:33:55;2.78;;;1.52;;
33826;SDS011;20128;45.582;5.298;2022-09-27T00:36:22;3.08;;;1.20;;
33826;SDS011;20128;45.582;5.298;2022-09-27T00:38:50;4.00;;;1.35;;
33826;SDS011;20128;45.582;5.298;2022-09-27T00:41:18;2.33;;;1.17;;
33826;SDS011;20128;45.582;5.298;2022-09-27T00:43:50;3.90;;;1.20;;
33826;SDS011;20128;45.582;5.298;2022-09-27T00:46:25;2.45;;;1.10;;
33826;SDS011;20128;45.582;5.298;2022-09-27T00:49:00;19.90;;;3.90;;
33826;SDS011;20128;45.582;5.298;2022-09-27T00:51:29;5.15;;;1.02;;
33826;SDS011;20128;45.582;5.298;2022-09-27T00:53:58;3.70;;;1.17;;
33826;SDS011;20128;45.582;5.298;2022-09-27T00:56:25;6.35;;;1.77;;
33826;SDS011;20128;45.582;5.298;2022-09-27T00:59:07;8.23;;;1.90;;
33826;SDS011;20128;45.582;5.298;2022-09-27T01:01:36;3.28;;;1.60;;
33826;SDS011;20128;45.582;5.298;2022-09-27T01:04:09;5.32;;;1.83;;
33826;SDS011;20128;45.582;5.298;2022-09-27T01:06:37;4.78;;;1.77;;
33826;SDS011;20128;45.582;5.298;2022-09-27T01:09:05;7.57;;;1.85;;
33826;SDS011;20128;45.582;5.298;2022-09-27T01:19:51;2.63;;;1.27;;
33826;SDS011;20128;45.582;5.298;2022-09-27T01:25:35;8.80;;;2.10;;
33826;SDS011;20128;45.582;5.298;2022-09-27T01:28:40;6.50;;;2.10;;
33826;SDS011;20128;45.582;5.298;2022-09-27T01:36:55;7.25;;;2.70;;
33826;SDS011;20128;45.582;5.298;2022-09-27T01:42:26;2.92;;;1.55;;
33826;SDS011;20128;45.582;5.298;2022-09-27T01:45:13;7.53;;;1.85;;
33826;SDS011;20128;45.582;5.298;2022-09-27T01:47:52;3.15;;;2.00;;
33826;SDS011;20128;45.582;5.298;2022-09-27T01:50:30;2.97;;;1.60;;
33826;SDS011;20128;45.582;5.298;2022-09-27T01:55:44;3.63;;;1.35;;
33826;SDS011;20128;45.582;5.298;2022-09-27T02:01:14;3.88;;;1.35;;
33826;SDS011;20128;45.582;5.298;2022-09-27T02:03:44;9.65;;;2.08;;
33826;SDS011;20128;45.582;5.298;2022-09-27T02:06:14;19.35;;;2.03;;
33826;SDS011;20128;45.582;5.298;2022-09-27T02:08:50;2.72;;;1.50;;
33826;SDS011;20128;45.582;5.298;2022-09-27T02:11:30;5.80;;;1.35;;
33826;SDS011;20128;45.582;5.298;2022-09-27T02:14:03;2.70;;;1.33;;
33826;SDS011;20128;45.582;5.298;2022-09-27T02:17:43;4.18;;;1.63;;
33826;SDS011;20128;45.582;5.298;2022-09-27T02:25:24;7.47;;;1.25;;
33826;SDS011;20128;45.582;5.298;2022-09-27T02:27:57;3.65;;;1.30;;
33826;SDS011;20128;45.582;5.298;2022-09-27T02:30:34;7.15;;;1.83;;
33826;SDS011;20128;45.582;5.298;2022-09-27T02:33:00;4.65;;;1.23;;
33826;SDS011;20128;45.582;5.298;2022-09-27T02:35:27;4.90;;;1.17;;
33826;SDS011;20128;45.582;5.298;2022-09-27T02:37:56;3.60;;;1.30;;
33826;SDS011;20128;45.582;5.298;2022-09-27T02:40:22;6.43;;;1.23;;
33826;SDS011;20128;45.582;5.298;2022-09-27T02:42:50;10.40;;;1.27;;
33826;SDS011;20128;45.582;5.298;2022-09-27T02:45:17;8.15;;;1.90;;
33826;SDS011;20128;45.582;5.298;2022-09-27T02:53:30;8.10;;;1.40;;
33826;SDS011;20128;45.582;5.298;2022-09-27T02:56:15;7.80;;;1.50;;
33826;SDS011;20128;45.582;5.298;2022-09-27T03:02:23;3.53;;;1.10;;
33826;SDS011;20128;45.582;5.298;2022-09-27T03:04:59;5.78;;;1.17;;
33826;SDS011;20128;45.582;5.298;2022-09-27T03:07:26;6.70;;;1.30;;
33826;SDS011;20128;45.582;5.298;2022-09-27T03:09:53;11.93;;;1.35;;
33826;SDS011;20128;45.582;5.298;2022-09-27T03:12:19;7.05;;;1.30;;
33826;SDS011;20128;45.582;5.298;2022-09-27T03:14:58;9.77;;;1.58;;
33826;SDS011;20128;45.582;5.298;2022-09-27T03:17:24;6.30;;;1.48;;
33826;SDS011;20128;45.582;5.298;2022-09-27T03:19:50;8.30;;;1.20;;
33826;SDS011;20128;45.582;5.298;2022-09-27T03:22:16;5.43;;;1.30;;
33826;SDS011;20128;45.582;5.298;2022-09-27T03:24:42;9.98;;;1.40;;
33826;SDS011;20128;45.582;5.298;2022-09-27T03:27:08;6.90;;;1.67;;
33826;SDS011;20128;45.582;5.298;2022-09-27T03:29:34;16.40;;;1.38;;
33826;SDS011;20128;45.582;5.298;2022-09-27T03:32:00;8.18;;;1.98;;
33826;SDS011;20128;45.582;5.298;2022-09-27T03:34:27;9.48;;;1.70;;
33826;SDS011;20128;45.582;5.298;2022-09-27T03:36:53;15.27;;;1.60;;
33826;SDS011;20128;45.582;5.298;2022-09-27T03:39:20;10.35;;;1.67;;
33826;SDS011;20128;45.582;5.298;2022-09-27T03:41:45;11.32;;;1.42;;
33826;SDS011;20128;45.582;5.298;2022-09-27T03:44:11;6.85;;;1.45;;
33826;SDS011;20128;45.582;5.298;2022-09-27T03:46:37;13.07;;;1.33;;
33826;SDS011;20128;45.582;5.298;2022-09-27T03:49:03;12.45;;;2.35;;
33826;SDS011;20128;45.582;5.298;2022-09-27T03:51:29;10.38;;;1.80;;
33826;SDS011;20128;45.582;5.298;2022-09-27T03:53:54;7.22;;;1.70;;
33826;SDS011;20128;45.582;5.298;2022-09-27T03:56:20;11.35;;;1.63;;
33826;SDS011;20128;45.582;5.298;2022-09-27T03:58:46;10.00;;;1.58;;
33826;SDS011;20128;45.582;5.298;2022-09-27T04:01:12;12.32;;;1.55;;
33826;SDS011;20128;45.582;5.298;2022-09-27T04:03:38;12.23;;;2.35;;
33826;SDS011;20128;45.582;5.298;2022-09-27T04:06:04;12.45;;;2.30;;
33826;SDS011;20128;45.582;5.298;2022-09-27T04:08:30;13.90;;;2.45;;
33826;SDS011;20128;45.582;5.298;2022-09-27T04:10:55;10.93;;;1.55;;
33826;SDS011;20128;45.582;5.298;2022-09-27T04:13:21;10.77;;;2.85;;
33826;SDS011;20128;45.582;5.298;2022-09-27T04:15:47;10.00;;;1.58;;
33826;SDS011;20128;45.582;5.298;2022-09-27T04:18:13;9.40;;;2.05;;
33826;SDS011;20128;45.582;5.298;2022-09-27T04:20:38;13.23;;;1.80;;
33826;SDS011;20128;45.582;5.298;2022-09-27T04:23:04;7.75;;;1.75;;
33826;SDS011;20128;45.582;5.298;2022-09-27T04:25:30;5.85;;;1.42;;
33826;SDS011;20128;45.582;5.298;2022-09-27T04:27:59;11.63;;;1.92;;
33826;SDS011;20128;45.582;5.298;2022-09-27T04:30:25;9.57;;;2.00;;
33826;SDS011;20128;45.582;5.298;2022-09-27T04:32:51;11.93;;;2.35;;
33826;SDS011;20128;45.582;5.298;2022-09-27T04:35:17;15.27;;;1.73;;
33826;SDS011;20128;45.582;5.298;2022-09-27T04:38:01;6.15;;;1.67;;
33826;SDS011;20128;45.582;5.298;2022-09-27T04:40:27;12.60;;;1.70;;
33826;SDS011;20128;45.582;5.298;2022-09-27T04:42:53;14.73;;;1.98;;
33826;SDS011;20128;45.582;5.298;2022-09-27T04:45:19;9.77;;;1.85;;
33826;SDS011;20128;45.582;5.298;2022-09-27T04:47:46;9.93;;;2.50;;
33826;SDS011;20128;45.582;5.298;2022-09-27T04:50:13;15.38;;;2.17;;
33826;SDS011;20128;45.582;5.298;2022-09-27T04:52:39;7.72;;;2.00;;
33826;SDS011;20128;45.582;5.298;2022-09-27T04:55:08;8.00;;;1.60;;
33826;SDS011;20128;45.582;5.298;2022-09-27T04:57:35;9.45;;;2.28;;
33826;SDS011;20128;45.582;5.298;2022-09-27T05:00:01;9.43;;;1.65;;
33826;SDS011;20128;45.582;5.298;2022-09-27T05:02:28;11.85;;;2.10;;
33826;SDS011;20128;45.582;5.298;2022-09-27T05:04:54;9.95;;;1.77;;
33826;SDS011;20128;45.582;5.298;2022-09-27T05:07:23;10.32;;;1.88;;
33826;SDS011;20128;45.582;5.298;2022-09-27T05:09:50;11.63;;;2.30;;
33826;SDS011;20128;45.582;5.298;2022-09-27T05:12:15;12.63;;;2.13;;
33826;SDS011;20128;45.582;5.298;2022-09-27T05:14:41;11.25;;;2.28;;
33826;SDS011;20128;45.582;5.298;2022-09-27T05:17:07;13.50;;;1.80;;
33826;SDS011;20128;45.582;5.298;2022-09-27T05:19:34;9.25;;;1.58;;
33826;SDS011;20128;45.582;5.298;2022-09-27T05:21:59;8.85;;;1.63;;
33826;SDS011;20128;45.582;5.298;2022-09-27T05:24:25;10.38;;;1.80;;
33826;SDS011;20128;45.582;5.298;2022-09-27T05:26:57;10.50;;;1.70;;
33826;SDS011;20128;45.582;5.298;2022-09-27T05:29:25;7.25;;;1.75;;
33826;SDS011;20128;45.582;5.298;2022-09-27T05:31:51;7.82;;;1.67;;
33826;SDS011;20128;45.582;5.298;2022-09-27T05:34:17;14.38;;;2.33;;
33826;SDS011;20128;45.582;5.298;2022-09-27T05:36:47;11.63;;;1.90;;
33826;SDS011;20128;45.582;5.298;2022-09-27T05:39:12;12.68;;;2.05;;
33826;SDS011;20128;45.582;5.298;2022-09-27T05:41:40;13.55;;;2.10;;
33826;SDS011;20128;45.582;5.298;2022-09-27T05:44:06;13.85;;;1.73;;
33826;SDS011;20128;45.582;5.298;2022-09-27T05:46:32;12.43;;;1.88;;
33826;SDS011;20128;45.582;5.298;2022-09-27T05:48:58;10.38;;;1.80;;
33826;SDS011;20128;45.582;5.298;2022-09-27T05:51:23;11.65;;;2.42;;
33826;SDS011;20128;45.582;5.298;2022-09-27T05:53:49;13.05;;;2.35;;
33826;SDS011;20128;45.582;5.298;2022-09-27T05:56:15;13.85;;;2.40;;
33826;SDS011;20128;45.582;5.298;2022-09-27T05:58:41;14.50;;;2.60;;
33826;SDS011;20128;45.582;5.298;2022-09-27T06:01:07;13.77;;;1.90;;
33826;SDS011;20128;45.582;5.298;2022-09-27T06:03:33;19.45;;;2.75;;
33826;SDS011;20128;45.582;5.298;2022-09-27T06:06:03;13.32;;;2.72;;
33826;SDS011;20128;45.582;5.298;2022-09-27T06:08:38;14.15;;;2.67;;
33826;SDS011;20128;45.582;5.298;2022-09-27T06:11:05;15.85;;;2.38;;
33826;SDS011;20128;45.582;5.298;2022-09-27T06:13:32;13.77;;;2.95;;
33826;SDS011;20128;45.582;5.298;2022-09-27T06:16:00;12.68;;;2.80;;
33826;SDS011;20128;45.582;5.298;2022-09-27T06:18:27;15.25;;;2.72;;
33826;SDS011;20128;45.582;5.298;2022-09-27T06:20:53;20.17;;;2.42;;
33826;SDS011;20128;45.582;5.298;2022-09-27T06:23:20;20.25;;;2.33;;
33826;SDS011;20128;45.582;5.298;2022-09-27T06:25:47;27.30;;;6.38;;
33826;SDS011;20128;45.582;5.298;2022-09-27T06:28:13;22.45;;;3.47;;
33826;SDS011;20128;45.582;5.298;2022-09-27T06:30:41;25.05;;;4.10;;
33826;SDS011;20128;45.582;5.298;2022-09-27T06:33:08;15.38;;;3.00;;
33826;SDS011;20128;45.582;5.298;2022-09-27T06:35:36;13.07;;;2.58;;
33826;SDS011;20128;45.582;5.298;2022-09-27T06:38:03;13.43;;;2.42;;
33826;SDS011;20128;45.582;5.298;2022-09-27T06:40:31;16.42;;;3.30;;
33826;SDS011;20128;45.582;5.298;2022-09-27T06:43:03;18.02;;;3.10;;
33826;SDS011;20128;45.582;5.298;2022-09-27T06:45:31;20.50;;;3.20;;
33826;SDS011;20128;45.582;5.298;2022-09-27T06:47:59;13.73;;;2.63;;
33826;SDS011;20128;45.582;5.298;2022-09-27T06:50:32;18.13;;;2.40;;
33826;SDS011;20128;45.582;5.298;2022-09-27T06:53:00;10.50;;;2.53;;
33826;SDS011;20128;45.582;5.298;2022-09-27T06:55:26;17.30;;;3.65;;
33826;SDS011;20128;45.582;5.298;2022-09-27T06:57:53;18.80;;;2.90;;
33826;SDS011;20128;45.582;5.298;2022-09-27T07:00:41;18.38;;;3.55;;
33826;SDS011;20128;45.582;5.298;2022-09-27T07:03:08;17.85;;;2.92;;
33826;SDS011;20128;45.582;5.298;2022-09-27T07:05:36;19.58;;;3.08;;
33826;SDS011;20128;45.582;5.298;2022-09-27T07:08:02;17.33;;;3.00;;
33826;SDS011;20128;45.582;5.298;2022-09-27T07:10:29;12.50;;;2.83;;
33826;SDS011;20128;45.582;5.298;2022-09-27T07:15:32;31.02;;;3.17;;
33826;SDS011;20128;45.582;5.298;2022-09-27T07:18:01;26.80;;;3.78;;
33826;SDS011;20128;45.582;5.298;2022-09-27T07:20:29;17.38;;;2.88;;
33826;SDS011;20128;45.582;5.298;2022-09-27T07:22:56;19.90;;;3.05;;
33826;SDS011;20128;45.582;5.298;2022-09-27T07:25:22;15.00;;;2.25;;
33826;SDS011;20128;45.582;5.298;2022-09-27T07:27:49;18.33;;;3.15;;
33826;SDS011;20128;45.582;5.298;2022-09-27T07:30:16;14.45;;;2.50;;
33826;SDS011;20128;45.582;5.298;2022-09-27T07:32:43;19.33;;;2.58;;
33826;SDS011;20128;45.582;5.298;2022-09-27T07:35:09;13.40;;;2.70;;
33826;SDS011;20128;45.582;5.298;2022-09-27T07:37:35;13.52;;;2.67;;
33826;SDS011;20128;45.582;5.298;2022-09-27T07:40:05;18.00;;;2.80;;
33826;SDS011;20128;45.582;5.298;2022-09-27T07:42:33;13.68;;;2.50;;
33826;SDS011;20128;45.582;5.298;2022-09-27T07:45:03;17.17;;;2.97;;
33826;SDS011;20128;45.582;5.298;2022-09-27T07:47:30;18.35;;;3.05;;
33826;SDS011;20128;45.582;5.298;2022-09-27T07:49:56;12.25;;;2.25;;
33826;SDS011;20128;45.582;5.298;2022-09-27T07:52:22;16.08;;;3.17;;
33826;SDS011;20128;45.582;5.298;2022-09-27T07:54:48;16.00;;;2.28;;
33826;SDS011;20128;45.582;5.298;2022-09-27T07:57:13;13.48;;;2.92;;
33826;SDS011;20128;45.582;5.298;2022-09-27T07:59:40;11.18;;;2.20;;
33826;SDS011;20128;45.582;5.298;2022-09-27T08:02:06;10.15;;;2.50;;
33826;SDS011;20128;45.582;5.298;2022-09-27T08:04:37;13.75;;;2.83;;
33826;SDS011;20128;45.582;5.298;2022-09-27T08:07:03;18.63;;;2.72;;
33826;SDS011;20128;45.582;5.298;2022-09-27T08:09:29;16.90;;;2.58;;
33826;SDS011;20128;45.582;5.298;2022-09-27T08:11:55;12.95;;;3.33;;
33826;SDS011;20128;45.582;5.298;2022-09-27T08:14:22;23.10;;;3.13;;
33826;SDS011;20128;45.582;5.298;2022-09-27T08:16:48;14.98;;;2.50;;
33826;SDS011;20128;45.582;5.298;2022-09-27T08:19:15;17.98;;;3.42;;
33826;SDS011;20128;45.582;5.298;2022-09-27T08:21:42;14.77;;;2.28;;
33826;SDS011;20128;45.582;5.298;2022-09-27T08:24:07;14.57;;;2.70;;
33826;SDS011;20128;45.582;5.298;2022-09-27T08:26:33;20.45;;;2.78;;
33826;SDS011;20128;45.582;5.298;2022-09-27T08:28:59;14.30;;;2.53;;
33826;SDS011;20128;45.582;5.298;2022-09-27T08:31:25;16.73;;;1.92;;
33826;SDS011;20128;45.582;5.298;2022-09-27T08:33:50;16.63;;;2.33;;
33826;SDS011;20128;45.582;5.298;2022-09-27T08:36:17;13.65;;;2.80;;
33826;SDS011;20128;45.582;5.298;2022-09-27T08:38:46;15.90;;;2.78;;
33826;SDS011;20128;45.582;5.298;2022-09-27T08:41:33;15.93;;;2.60;;
33826;SDS011;20128;45.582;5.298;2022-09-27T08:44:38;12.27;;;1.85;;
33826;SDS011;20128;45.582;5.298;2022-09-27T08:49:48;13.57;;;2.13;;
33826;SDS011;20128;45.582;5.298;2022-09-27T08:52:17;12.43;;;2.25;;
33826;SDS011;20128;45.582;5.298;2022-09-27T08:54:51;11.80;;;2.30;;
33826;SDS011;20128;45.582;5.298;2022-09-27T08:57:19;11.70;;;2.38;;
33826;SDS011;20128;45.582;5.298;2022-09-27T09:00:00;12.95;;;2.33;;
33826;SDS011;20128;45.582;5.298;2022-09-27T09:02:29;11.18;;;2.30;;
33826;SDS011;20128;45.582;5.298;2022-09-27T09:04:57;11.82;;;2.38;;
33826;SDS011;20128;45.582;5.298;2022-09-27T09:10:31;12.07;;;2.30;;
33826;SDS011;20128;45.582;5.298;2022-09-27T09:23:52;11.82;;;2.15;;
33826;SDS011;20128;45.582;5.298;2022-09-27T09:34:44;7.65;;;1.83;;
33826;SDS011;20128;45.582;5.298;2022-09-27T09:37:56;16.23;;;2.90;;
33826;SDS011;20128;45.582;5.298;2022-09-27T09:40:15;10.48;;;1.50;;
33826;SDS011;20128;45.582;5.298;2022-09-27T09:43:09;13.45;;;1.58;;
33826;SDS011;20128;45.582;5.298;2022-09-27T09:46:07;15.95;;;2.28;;
33826;SDS011;20128;45.582;5.298;2022-09-27T09:48:44;9.82;;;2.00;;
33826;SDS011;20128;45.582;5.298;2022-09-27T09:51:16;15.57;;;2.28;;
33826;SDS011;20128;45.582;5.298;2022-09-27T09:54:11;13.35;;;2.22;;
33826;SDS011;20128;45.582;5.298;2022-09-27T09:56:48;11.60;;;2.13;;
33826;SDS011;20128;45.582;5.298;2022-09-27T09:59:27;14.07;;;2.38;;
33826;SDS011;20128;45.582;5.298;2022-09-27T10:01:57;10.18;;;2.05;;
33826;SDS011;20128;45.582;5.298;2022-09-27T10:04:57;11.95;;;2.13;;
33826;SDS011;20128;45.582;5.298;2022-09-27T10:07:23;18.50;;;2.70;;
33826;SDS011;20128;45.582;5.298;2022-09-27T10:09:51;10.15;;;1.35;;
33826;SDS011;20128;45.582;5.298;2022-09-27T10:12:20;10.25;;;1.48;;
33826;SDS011;20128;45.582;5.298;2022-09-27T10:14:47;10.73;;;1.83;;
33826;SDS011;20128;45.582;5.298;2022-09-27T10:17:15;11.65;;;1.90;;
33826;SDS011;20128;45.582;5.298;2022-09-27T10:19:44;8.52;;;1.77;;
33826;SDS011;20128;45.582;5.298;2022-09-27T10:22:15;6.93;;;1.70;;
33826;SDS011;20128;45.582;5.298;2022-09-27T10:24:55;10.27;;;3.15;;
33826;SDS011;20128;45.582;5.298;2022-09-27T10:27:23;8.18;;;1.65;;
33826;SDS011;20128;45.582;5.298;2022-09-27T10:29:57;11.63;;;1.92;;
33826;SDS011;20128;45.582;5.298;2022-09-27T10:32:25;7.82;;;1.38;;
33826;SDS011;20128;45.582;5.298;2022-09-27T10:35:19;11.00;;;2.33;;
33826;SDS011;20128;45.582;5.298;2022-09-27T10:37:43;14.57;;;1.92;;
33826;SDS011;20128;45.582;5.298;2022-09-27T10:40:28;6.43;;;1.60;;
33826;SDS011;20128;45.582;5.298;2022-09-27T10:42:57;8.88;;;1.45;;
33826;SDS011;20128;45.582;5.298;2022-09-27T10:47:48;8.35;;;1.35;;
33826;SDS011;20128;45.582;5.298;2022-09-27T10:50:18;11.27;;;1.55;;
33826;SDS011;20128;45.582;5.298;2022-09-27T10:52:50;10.50;;;1.77;;
33826;SDS011;20128;45.582;5.298;2022-09-27T10:55:47;11.50;;;1.50;;
33826;SDS011;20128;45.582;5.298;2022-09-27T10:58:17;6.57;;;1.40;;
33826;SDS011;20128;45.582;5.298;2022-09-27T11:00:57;8.65;;;1.75;;
33826;SDS011;20128;45.582;5.298;2022-09-27T11:03:35;10.65;;;1.60;;
33826;SDS011;20128;45.582;5.298;2022-09-27T11:06:26;8.48;;;1.58;;
33826;SDS011;20128;45.582;5.298;2022-09-27T11:11:50;11.27;;;3.00;;
33826;SDS011;20128;45.582;5.298;2022-09-27T11:14:37;7.53;;;1.58;;
33826;SDS011;20128;45.582;5.298;2022-09-27T11:20:24;8.32;;;1.80;;
33826;SDS011;20128;45.582;5.298;2022-09-27T11:31:07;7.63;;;1.30;;
33826;SDS011;20128;45.582;5.298;2022-09-27T11:39:20;5.88;;;1.88;;
33826;SDS011;20128;45.582;5.298;2022-09-27T11:42:00;9.60;;;1.75;;
33826;SDS011;20128;45.582;5.298;2022-09-27T11:53:15;5.47;;;1.75;;
33826;SDS011;20128;45.582;5.298;2022-09-27T11:58:50;5.82;;;1.70;;
33826;SDS011;20128;45.582;5.298;2022-09-27T12:09:24;6.03;;;1.25;;
33826;SDS011;20128;45.582;5.298;2022-09-27T12:14:36;9.07;;;1.15;;
33826;SDS011;20128;45.582;5.298;2022-09-27T12:17:10;11.25;;;1.95;;
33826;SDS011;20128;45.582;5.298;2022-09-27T12:19:41;12.88;;;1.73;;
33826;SDS011;20128;45.582;5.298;2022-09-27T12:22:13;8.38;;;1.95;;
33826;SDS011;20128;45.582;5.298;2022-09-27T12:24:41;7.80;;;1.90;;
33826;SDS011;20128;45.582;5.298;2022-09-27T12:27:11;6.93;;;1.75;;
33826;SDS011;20128;45.582;5.298;2022-09-27T12:29:41;7.80;;;1.95;;
33826;SDS011;20128;45.582;5.298;2022-09-27T12:32:20;11.50;;;2.95;;
33826;SDS011;20128;45.582;5.298;2022-09-27T12:40:19;10.30;;;1.60;;
33826;SDS011;20128;45.582;5.298;2022-09-27T12:42:54;6.03;;;1.30;;
33826;SDS011;20128;45.582;5.298;2022-09-27T12:48:38;10.23;;;1.13;;
33826;SDS011;20128;45.582;5.298;2022-09-27T12:51:07;9.32;;;1.48;;
33826;SDS011;20128;45.582;5.298;2022-09-27T13:06:38;5.10;;;1.30;;
33826;SDS011;20128;45.582;5.298;2022-09-27T13:09:17;3.28;;;0.98;;
33826;SDS011;20128;45.582;5.298;2022-09-27T13:14:38;4.15;;;1.13;;
33826;SDS011;20128;45.582;5.298;2022-09-27T13:19:58;7.65;;;1.45;;
33826;SDS011;20128;45.582;5.298;2022-09-27T13:24:53;2.65;;;1.02;;
33826;SDS011;20128;45.582;5.298;2022-09-27T13:29:47;7.03;;;1.20;;
33826;SDS011;20128;45.582;5.298;2022-09-27T13:32:15;14.38;;;1.30;;
33826;SDS011;20128;45.582;5.298;2022-09-27T13:37:31;4.65;;;1.02;;
33826;SDS011;20128;45.582;5.298;2022-09-27T13:45:37;6.63;;;0.80;;
33826;SDS011;20128;45.582;5.298;2022-09-27T13:48:31;10.65;;;1.00;;
33826;SDS011;20128;45.582;5.298;2022-09-27T13:51:03;7.47;;;0.68;;
33826;SDS011;20128;45.582;5.298;2022-09-27T13:53:40;4.15;;;1.10;;
33826;SDS011;20128;45.582;5.298;2022-09-27T13:56:47;6.82;;;1.25;;
33826;SDS011;20128;45.582;5.298;2022-09-27T13:59:13;3.70;;;1.00;;
33826;SDS011;20128;45.582;5.298;2022-09-27T14:01:48;5.35;;;0.82;;
33826;SDS011;20128;45.582;5.298;2022-09-27T14:04:21;6.93;;;1.07;;
33826;SDS011;20128;45.582;5.298;2022-09-27T14:06:57;11.20;;;1.45;;
33826;SDS011;20128;45.582;5.298;2022-09-27T14:09:29;4.28;;;0.80;;
33826;SDS011;20128;45.582;5.298;2022-09-27T14:12:10;6.15;;;1.05;;
33826;SDS011;20128;45.582;5.298;2022-09-27T14:14:40;11.07;;;1.20;;
33826;SDS011;20128;45.582;5.298;2022-09-27T14:17:09;4.70;;;0.98;;
33826;SDS011;20128;45.582;5.298;2022-09-27T14:19:40;6.03;;;0.98;;
33826;SDS011;20128;45.582;5.298;2022-09-27T14:22:15;3.45;;;0.85;;
33826;SDS011;20128;45.582;5.298;2022-09-27T14:24:43;2.50;;;0.63;;
33826;SDS011;20128;45.582;5.298;2022-09-27T14:27:16;3.13;;;0.82;;
33826;SDS011;20128;45.582;5.298;2022-09-27T14:32:19;3.75;;;0.75;;
33826;SDS011;20128;45.582;5.298;2022-09-27T14:37:58;7.47;;;0.85;;
33826;SDS011;20128;45.582;5.298;2022-09-27T14:40:37;4.00;;;0.80;;
33826;SDS011;20128;45.582;5.298;2022-09-27T14:43:16;4.20;;;0.80;;
33826;SDS011;20128;45.582;5.298;2022-09-27T14:45:44;3.85;;;1.00;;
33826;SDS011;20128;45.582;5.298;2022-09-27T14:48:29;6.88;;;1.10;;
33826;SDS011;20128;45.582;5.298;2022-09-27T14:50:57;4.68;;;1.10;;
33826;SDS011;20128;45.582;5.298;2022-09-27T14:53:30;7.15;;;1.40;;
33826;SDS011;20128;45.582;5.298;2022-09-27T14:56:01;5.07;;;1.30;;
33826;SDS011;20128;45.582;5.298;2022-09-27T14:58:28;9.27;;;1.35;;
33826;SDS011;20128;45.582;5.298;2022-09-27T15:00:54;5.43;;;1.15;;
33826;SDS011;20128;45.582;5.298;2022-09-27T15:03:27;7.72;;;1.38;;
33826;SDS011;20128;45.582;5.298;2022-09-27T15:05:56;5.50;;;1.27;;
33826;SDS011;20128;45.582;5.298;2022-09-27T15:08:24;8.60;;;1.10;;
33826;SDS011;20128;45.582;5.298;2022-09-27T15:10:54;6.22;;;1.20;;
33826;SDS011;20128;45.582;5.298;2022-09-27T15:13:21;5.60;;;1.00;;
33826;SDS011;20128;45.582;5.298;2022-09-27T15:15:48;6.53;;;1.13;;
33826;SDS011;20128;45.582;5.298;2022-09-27T15:18:31;4.60;;;1.10;;
33826;SDS011;20128;45.582;5.298;2022-09-27T15:21:10;5.47;;;1.38;;
33826;SDS011;20128;45.582;5.298;2022-09-27T15:23:39;3.78;;;1.15;;
33826;SDS011;20128;45.582;5.298;2022-09-27T15:28:32;7.50;;;1.50;;
33826;SDS011;20128;45.582;5.298;2022-09-27T15:31:03;6.95;;;1.00;;
33826;SDS011;20128;45.582;5.298;2022-09-27T15:33:31;5.25;;;0.95;;
33826;SDS011;20128;45.582;5.298;2022-09-27T15:35:59;4.18;;;1.10;;
33826;SDS011;20128;45.582;5.298;2022-09-27T15:38:31;9.32;;;1.13;;
33826;SDS011;20128;45.582;5.298;2022-09-27T15:41:14;5.15;;;1.33;;
33826;SDS011;20128;45.582;5.298;2022-09-27T15:48:46;5.60;;;0.98;;
33826;SDS011;20128;45.582;5.298;2022-09-27T15:54:09;5.63;;;1.05;;
33826;SDS011;20128;45.582;5.298;2022-09-27T15:56:35;11.77;;;1.52;;
33826;SDS011;20128;45.582;5.298;2022-09-27T15:59:02;6.75;;;1.20;;
33826;SDS011;20128;45.582;5.298;2022-09-27T16:01:28;9.75;;;1.75;;
33826;SDS011;20128;45.582;5.298;2022-09-27T16:03:56;7.80;;;1.77;;
33826;SDS011;20128;45.582;5.298;2022-09-27T16:06:23;7.85;;;1.48;;
33826;SDS011;20128;45.582;5.298;2022-09-27T16:08:51;3.42;;;1.00;;
33826;SDS011;20128;45.582;5.298;2022-09-27T16:11:17;8.90;;;1.77;;
33826;SDS011;20128;45.582;5.298;2022-09-27T16:13:43;8.98;;;1.77;;
33826;SDS011;20128;45.582;5.298;2022-09-27T16:16:11;7.13;;;1.88;;
33826;SDS011;20128;45.582;5.298;2022-09-27T16:18:41;6.30;;;1.48;;
33826;SDS011;20128;45.582;5.298;2022-09-27T16:21:08;4.68;;;1.52;;
33826;SDS011;20128;45.582;5.298;2022-09-27T16:23:34;7.55;;;1.73;;
33826;SDS011;20128;45.582;5.298;2022-09-27T16:26:00;11.35;;;1.85;;
33826;SDS011;20128;45.582;5.298;2022-09-27T16:28:25;11.85;;;1.77;;
33826;SDS011;20128;45.582;5.298;2022-09-27T16:30:51;10.07;;;1.50;;
33826;SDS011;20128;45.582;5.298;2022-09-27T16:33:16;7.05;;;1.27;;
33826;SDS011;20128;45.582;5.298;2022-09-27T16:35:42;7.75;;;1.70;;
33826;SDS011;20128;45.582;5.298;2022-09-27T16:38:08;7.18;;;1.60;;
33826;SDS011;20128;45.582;5.298;2022-09-27T16:40:34;7.18;;;1.50;;
33826;SDS011;20128;45.582;5.298;2022-09-27T16:43:01;3.53;;;1.20;;
33826;SDS011;20128;45.582;5.298;2022-09-27T16:45:31;18.73;;;1.65;;
33826;SDS011;20128;45.582;5.298;2022-09-27T16:47:58;7.60;;;1.30;;
33826;SDS011;20128;45.582;5.298;2022-09-27T16:50:24;6.80;;;1.52;;
33826;SDS011;20128;45.582;5.298;2022-09-27T16:53:09;8.52;;;2.05;;
33826;SDS011;20128;45.582;5.298;2022-09-27T16:55:35;9.75;;;2.78;;
33826;SDS011;20128;45.582;5.298;2022-09-27T16:58:01;16.20;;;2.67;;
33826;SDS011;20128;45.582;5.298;2022-09-27T17:00:29;15.88;;;2.13;;
33826;SDS011;20128;45.582;5.298;2022-09-27T17:02:57;8.27;;;2.33;;
33826;SDS011;20128;45.582;5.298;2022-09-27T17:05:23;7.15;;;1.42;;
33826;SDS011;20128;45.582;5.298;2022-09-27T17:07:49;7.88;;;1.25;;
33826;SDS011;20128;45.582;5.298;2022-09-27T17:10:16;8.85;;;1.42;;
33826;SDS011;20128;45.582;5.298;2022-09-27T17:12:43;6.60;;;1.67;;
33826;SDS011;20128;45.582;5.298;2022-09-27T17:15:10;13.52;;;1.55;;
33826;SDS011;20128;45.582;5.298;2022-09-27T17:17:36;14.02;;;2.00;;
33826;SDS011;20128;45.582;5.298;2022-09-27T17:20:01;7.20;;;1.73;;
33826;SDS011;20128;45.582;5.298;2022-09-27T17:22:27;5.68;;;1.40;;
33826;SDS011;20128;45.582;5.298;2022-09-27T17:24:53;5.38;;;1.70;;
33826;SDS011;20128;45.582;5.298;2022-09-27T17:27:18;9.23;;;2.28;;
33826;SDS011;20128;45.582;5.298;2022-09-27T17:29:44;8.52;;;3.25;;
33826;SDS011;20128;45.582;5.298;2022-09-27T17:32:10;8.45;;;2.97;;
33826;SDS011;20128;45.582;5.298;2022-09-27T17:34:37;7.47;;;2.30;;
33826;SDS011;20128;45.582;5.298;2022-09-27T17:37:07;7.45;;;1.95;;
33826;SDS011;20128;45.582;5.298;2022-09-27T17:39:34;8.15;;;2.05;;
33826;SDS011;20128;45.582;5.298;2022-09-27T17:42:00;2.88;;;1.42;;
33826;SDS011;20128;45.582;5.298;2022-09-27T17:44:26;8.73;;;1.20;;
33826;SDS011;20128;45.582;5.298;2022-09-27T17:46:52;7.95;;;1.02;;
33826;SDS011;20128;45.582;5.298;2022-09-27T17:49:38;5.70;;;1.30;;